sensor_id;sensor_type;location;lat;lon;timestamp;P1;durP1;ratioP1;P2;durP2;ratioP2
78308;SDS011;75657;42.022;21.356;2024-01-15T00:02:16;136.27;;;68.25;;
78308;SDS011;75657;42.022;21.356;2024-01-15T00:04:42;142.20;;;66.78;;
78308;SDS011;75657;42.022;21.356;2024-01-15T00:07:08;170.38;;;81.65;;
78308;SDS011;75657;42.022;21.356;2024-01-15T00:09:34;152.50;;;83.57;;
78308;SDS011;75657;42.022;21.356;2024-01-15T00:12:00;169.40;;;85.80;;
78308;SDS011;75657;42.022;21.356;2024-01-15T00:14:26;176.43;;;85.65;;
78308;SDS011;75657;42.022;21.356;2024-01-15T00:16:52;176.38;;;87.68;;
78308;SDS011;75657;42.022;21.356;2024-01-15T00:19:22;185.43;;;91.85;;
78308;SDS011;75657;42.022;21.356;2024-01-15T00:21:49;201.90;;;93.78;;
78308;SDS011;75657;42.022;21.356;2024-01-15T00:24:15;186.60;;;91.38;;
78308;SDS011;75657;42.022;21.356;2024-01-15T00:26:42;188.43;;;93.88;;
78308;SDS011;75657;42.022;21.356;2024-01-15T00:29:08;204.48;;;92.70;;
78308;SDS011;75657;42.022;21.356;2024-01-15T00:31:34;201.30;;;98.68;;
78308;SDS011;75657;42.022;21.356;2024-01-15T00:34:00;199.02;;;96.13;;
78308;SDS011;75657;42.022;21.356;2024-01-15T00:36:25;181.60;;;90.80;;
78308;SDS011;75657;42.022;21.356;2024-01-15T00:38:51;170.32;;;80.68;;
78308;SDS011;75657;42.022;21.356;2024-01-15T00:41:17;152.25;;;76.95;;
78308;SDS011;75657;42.022;21.356;2024-01-15T00:43:43;163.07;;;77.80;;
78308;SDS011;75657;42.022;21.356;2024-01-15T00:46:10;161.88;;;76.13;;
78308;SDS011;75657;42.022;21.356;2024-01-15T00:48:36;145.45;;;69.00;;
78308;SDS011;75657;42.022;21.356;2024-01-15T00:51:01;132.50;;;62.45;;
78308;SDS011;75657;42.022;21.356;2024-01-15T00:53:27;126.47;;;60.17;;
78308;SDS011;75657;42.022;21.356;2024-01-15T00:55:52;122.63;;;58.03;;
78308;SDS011;75657;42.022;21.356;2024-01-15T00:58:18;124.82;;;57.25;;
78308;SDS011;75657;42.022;21.356;2024-01-15T01:00:44;116.40;;;57.78;;
78308;SDS011;75657;42.022;21.356;2024-01-15T01:03:09;122.88;;;57.88;;
78308;SDS011;75657;42.022;21.356;2024-01-15T01:05:35;115.25;;;56.00;;
78308;SDS011;75657;42.022;21.356;2024-01-15T01:08:00;127.22;;;64.40;;
78308;SDS011;75657;42.022;21.356;2024-01-15T01:10:26;120.15;;;58.22;;
78308;SDS011;75657;42.022;21.356;2024-01-15T01:12:52;124.47;;;59.03;;
78308;SDS011;75657;42.022;21.356;2024-01-15T01:15:18;145.82;;;68.10;;
78308;SDS011;75657;42.022;21.356;2024-01-15T01:17:43;126.93;;;62.80;;
78308;SDS011;75657;42.022;21.356;2024-01-15T01:20:09;115.45;;;56.92;;
78308;SDS011;75657;42.022;21.356;2024-01-15T01:22:35;161.85;;;76.65;;
78308;SDS011;75657;42.022;21.356;2024-01-15T01:25:02;150.25;;;72.35;;
78308;SDS011;75657;42.022;21.356;2024-01-15T01:27:27;150.85;;;73.57;;
78308;SDS011;75657;42.022;21.356;2024-01-15T01:29:53;139.20;;;67.60;;
78308;SDS011;75657;42.022;21.356;2024-01-15T01:32:18;129.68;;;61.50;;
78308;SDS011;75657;42.022;21.356;2024-01-15T01:34:44;112.70;;;54.35;;
78308;SDS011;75657;42.022;21.356;2024-01-15T01:37:09;101.30;;;47.92;;
78308;SDS011;75657;42.022;21.356;2024-01-15T01:39:38;95.43;;;47.55;;
78308;SDS011;75657;42.022;21.356;2024-01-15T01:42:04;104.45;;;52.20;;
78308;SDS011;75657;42.022;21.356;2024-01-15T01:44:30;140.85;;;65.40;;
78308;SDS011;75657;42.022;21.356;2024-01-15T01:46:55;135.45;;;63.17;;
78308;SDS011;75657;42.022;21.356;2024-01-15T01:49:22;111.88;;;54.05;;
78308;SDS011;75657;42.022;21.356;2024-01-15T01:51:49;106.43;;;51.38;;
78308;SDS011;75657;42.022;21.356;2024-01-15T01:54:15;101.90;;;49.92;;
78308;SDS011;75657;42.022;21.356;2024-01-15T01:56:41;96.65;;;50.05;;
78308;SDS011;75657;42.022;21.356;2024-01-15T01:59:08;86.15;;;40.42;;
78308;SDS011;75657;42.022;21.356;2024-01-15T02:01:35;78.80;;;40.80;;
78308;SDS011;75657;42.022;21.356;2024-01-15T02:04:01;80.45;;;40.47;;
78308;SDS011;75657;42.022;21.356;2024-01-15T02:06:29;79.65;;;38.53;;
78308;SDS011;75657;42.022;21.356;2024-01-15T02:08:54;75.78;;;39.33;;
78308;SDS011;75657;42.022;21.356;2024-01-15T02:11:20;81.60;;;41.45;;
78308;SDS011;75657;42.022;21.356;2024-01-15T02:13:46;83.40;;;43.72;;
78308;SDS011;75657;42.022;21.356;2024-01-15T02:16:12;105.72;;;50.03;;
78308;SDS011;75657;42.022;21.356;2024-01-15T02:18:44;95.57;;;49.50;;
78308;SDS011;75657;42.022;21.356;2024-01-15T02:21:11;98.53;;;48.28;;
78308;SDS011;75657;42.022;21.356;2024-01-15T02:23:37;103.88;;;50.38;;
78308;SDS011;75657;42.022;21.356;2024-01-15T02:26:04;95.88;;;47.10;;
78308;SDS011;75657;42.022;21.356;2024-01-15T02:28:30;110.22;;;55.13;;
78308;SDS011;75657;42.022;21.356;2024-01-15T02:30:57;102.47;;;49.42;;
78308;SDS011;75657;42.022;21.356;2024-01-15T02:33:23;98.22;;;49.53;;
78308;SDS011;75657;42.022;21.356;2024-01-15T02:35:48;108.70;;;49.38;;
78308;SDS011;75657;42.022;21.356;2024-01-15T02:38:17;96.55;;;47.08;;
78308;SDS011;75657;42.022;21.356;2024-01-15T02:40:43;88.38;;;46.05;;
78308;SDS011;75657;42.022;21.356;2024-01-15T02:43:09;92.07;;;46.50;;
78308;SDS011;75657;42.022;21.356;2024-01-15T02:45:34;99.50;;;50.85;;
78308;SDS011;75657;42.022;21.356;2024-01-15T02:48:00;103.25;;;54.35;;
78308;SDS011;75657;42.022;21.356;2024-01-15T02:50:25;112.47;;;55.75;;
78308;SDS011;75657;42.022;21.356;2024-01-15T02:52:51;130.40;;;70.10;;
78308;SDS011;75657;42.022;21.356;2024-01-15T02:55:17;137.50;;;66.22;;
78308;SDS011;75657;42.022;21.356;2024-01-15T02:57:42;149.55;;;75.15;;
78308;SDS011;75657;42.022;21.356;2024-01-15T03:00:08;141.23;;;68.25;;
78308;SDS011;75657;42.022;21.356;2024-01-15T03:02:37;109.32;;;56.28;;
78308;SDS011;75657;42.022;21.356;2024-01-15T03:05:08;116.38;;;54.17;;
78308;SDS011;75657;42.022;21.356;2024-01-15T03:07:34;116.45;;;55.83;;
78308;SDS011;75657;42.022;21.356;2024-01-15T03:10:00;106.13;;;52.90;;
78308;SDS011;75657;42.022;21.356;2024-01-15T03:12:25;115.63;;;55.83;;
78308;SDS011;75657;42.022;21.356;2024-01-15T03:14:51;93.05;;;48.05;;
78308;SDS011;75657;42.022;21.356;2024-01-15T03:17:16;112.13;;;51.50;;
78308;SDS011;75657;42.022;21.356;2024-01-15T03:19:42;113.15;;;53.38;;
78308;SDS011;75657;42.022;21.356;2024-01-15T03:22:07;114.43;;;53.05;;
78308;SDS011;75657;42.022;21.356;2024-01-15T03:24:34;110.80;;;54.65;;
78308;SDS011;75657;42.022;21.356;2024-01-15T03:27:00;103.78;;;50.08;;
78308;SDS011;75657;42.022;21.356;2024-01-15T03:29:25;114.95;;;56.33;;
78308;SDS011;75657;42.022;21.356;2024-01-15T03:31:51;109.05;;;52.78;;
78308;SDS011;75657;42.022;21.356;2024-01-15T03:34:17;103.63;;;52.40;;
78308;SDS011;75657;42.022;21.356;2024-01-15T03:36:43;122.35;;;59.67;;
78308;SDS011;75657;42.022;21.356;2024-01-15T03:39:08;124.18;;;62.97;;
78308;SDS011;75657;42.022;21.356;2024-01-15T03:41:34;118.93;;;58.03;;
78308;SDS011;75657;42.022;21.356;2024-01-15T03:43:59;107.47;;;51.38;;
78308;SDS011;75657;42.022;21.356;2024-01-15T03:46:25;106.85;;;52.65;;
78308;SDS011;75657;42.022;21.356;2024-01-15T03:48:50;112.22;;;52.97;;
78308;SDS011;75657;42.022;21.356;2024-01-15T03:51:19;112.72;;;53.28;;
78308;SDS011;75657;42.022;21.356;2024-01-15T03:53:44;103.95;;;51.90;;
78308;SDS011;75657;42.022;21.356;2024-01-15T03:56:10;109.10;;;53.75;;
78308;SDS011;75657;42.022;21.356;2024-01-15T03:58:35;103.53;;;49.35;;
78308;SDS011;75657;42.022;21.356;2024-01-15T04:01:01;103.47;;;48.15;;
78308;SDS011;75657;42.022;21.356;2024-01-15T04:03:27;98.10;;;50.47;;
78308;SDS011;75657;42.022;21.356;2024-01-15T04:05:52;109.30;;;50.08;;
78308;SDS011;75657;42.022;21.356;2024-01-15T04:08:17;101.63;;;49.17;;
78308;SDS011;75657;42.022;21.356;2024-01-15T04:10:43;99.90;;;48.28;;
78308;SDS011;75657;42.022;21.356;2024-01-15T04:13:08;90.32;;;44.17;;
78308;SDS011;75657;42.022;21.356;2024-01-15T04:15:34;94.72;;;45.67;;
78308;SDS011;75657;42.022;21.356;2024-01-15T04:18:00;95.80;;;46.20;;
78308;SDS011;75657;42.022;21.356;2024-01-15T04:20:27;95.95;;;46.03;;
78308;SDS011;75657;42.022;21.356;2024-01-15T04:22:52;89.28;;;45.92;;
78308;SDS011;75657;42.022;21.356;2024-01-15T04:25:18;92.20;;;44.92;;
78308;SDS011;75657;42.022;21.356;2024-01-15T04:27:43;92.18;;;47.50;;
78308;SDS011;75657;42.022;21.356;2024-01-15T04:30:09;96.50;;;47.22;;
78308;SDS011;75657;42.022;21.356;2024-01-15T04:32:35;93.82;;;47.67;;
78308;SDS011;75657;42.022;21.356;2024-01-15T04:35:01;98.07;;;45.58;;
78308;SDS011;75657;42.022;21.356;2024-01-15T04:37:26;86.97;;;45.42;;
78308;SDS011;75657;42.022;21.356;2024-01-15T04:39:52;85.93;;;43.40;;
78308;SDS011;75657;42.022;21.356;2024-01-15T04:42:20;95.68;;;47.83;;
78308;SDS011;75657;42.022;21.356;2024-01-15T04:44:46;97.32;;;45.97;;
78308;SDS011;75657;42.022;21.356;2024-01-15T04:47:11;83.22;;;41.45;;
78308;SDS011;75657;42.022;21.356;2024-01-15T04:49:36;96.93;;;50.30;;
78308;SDS011;75657;42.022;21.356;2024-01-15T04:52:02;93.70;;;46.35;;
78308;SDS011;75657;42.022;21.356;2024-01-15T04:54:28;95.10;;;46.47;;
78308;SDS011;75657;42.022;21.356;2024-01-15T04:56:53;108.45;;;51.58;;
78308;SDS011;75657;42.022;21.356;2024-01-15T04:59:19;94.05;;;49.22;;
78308;SDS011;75657;42.022;21.356;2024-01-15T05:01:44;104.60;;;48.88;;
78308;SDS011;75657;42.022;21.356;2024-01-15T05:04:09;100.10;;;46.90;;
78308;SDS011;75657;42.022;21.356;2024-01-15T05:06:35;104.72;;;48.78;;
78308;SDS011;75657;42.022;21.356;2024-01-15T05:09:00;95.22;;;49.00;;
78308;SDS011;75657;42.022;21.356;2024-01-15T05:11:26;106.40;;;50.85;;
78308;SDS011;75657;42.022;21.356;2024-01-15T05:13:51;99.50;;;50.03;;
78308;SDS011;75657;42.022;21.356;2024-01-15T05:16:17;106.03;;;52.20;;
78308;SDS011;75657;42.022;21.356;2024-01-15T05:18:42;148.38;;;66.25;;
78308;SDS011;75657;42.022;21.356;2024-01-15T05:21:08;105.90;;;50.58;;
78308;SDS011;75657;42.022;21.356;2024-01-15T05:23:34;98.95;;;49.28;;
78308;SDS011;75657;42.022;21.356;2024-01-15T05:25:59;102.57;;;51.72;;
78308;SDS011;75657;42.022;21.356;2024-01-15T05:28:25;93.93;;;47.97;;
78308;SDS011;75657;42.022;21.356;2024-01-15T05:30:50;133.38;;;58.35;;
78308;SDS011;75657;42.022;21.356;2024-01-15T05:33:16;226.95;;;83.22;;
78308;SDS011;75657;42.022;21.356;2024-01-15T05:35:42;181.43;;;66.15;;
78308;SDS011;75657;42.022;21.356;2024-01-15T05:38:08;107.90;;;49.78;;
78308;SDS011;75657;42.022;21.356;2024-01-15T05:40:33;92.68;;;43.10;;
78308;SDS011;75657;42.022;21.356;2024-01-15T05:42:59;86.32;;;43.75;;
78308;SDS011;75657;42.022;21.356;2024-01-15T05:45:25;81.88;;;41.92;;
78308;SDS011;75657;42.022;21.356;2024-01-15T05:47:52;84.82;;;42.85;;
78308;SDS011;75657;42.022;21.356;2024-01-15T05:50:17;82.60;;;42.25;;
78308;SDS011;75657;42.022;21.356;2024-01-15T05:52:43;87.93;;;46.10;;
78308;SDS011;75657;42.022;21.356;2024-01-15T05:55:08;79.20;;;42.45;;
78308;SDS011;75657;42.022;21.356;2024-01-15T05:57:35;78.80;;;41.60;;
78308;SDS011;75657;42.022;21.356;2024-01-15T06:00:00;86.90;;;41.60;;
78308;SDS011;75657;42.022;21.356;2024-01-15T06:02:26;80.43;;;40.88;;
78308;SDS011;75657;42.022;21.356;2024-01-15T06:04:51;99.22;;;50.72;;
78308;SDS011;75657;42.022;21.356;2024-01-15T06:07:17;87.05;;;45.70;;
78308;SDS011;75657;42.022;21.356;2024-01-15T06:09:42;98.68;;;47.60;;
78308;SDS011;75657;42.022;21.356;2024-01-15T06:12:07;92.90;;;46.53;;
78308;SDS011;75657;42.022;21.356;2024-01-15T06:14:33;94.95;;;46.15;;
78308;SDS011;75657;42.022;21.356;2024-01-15T06:16:59;93.68;;;47.40;;
78308;SDS011;75657;42.022;21.356;2024-01-15T06:19:24;93.25;;;44.53;;
78308;SDS011;75657;42.022;21.356;2024-01-15T06:21:49;92.53;;;44.08;;
78308;SDS011;75657;42.022;21.356;2024-01-15T06:24:15;99.35;;;50.60;;
78308;SDS011;75657;42.022;21.356;2024-01-15T06:26:42;98.10;;;46.92;;
78308;SDS011;75657;42.022;21.356;2024-01-15T06:29:08;95.15;;;46.53;;
78308;SDS011;75657;42.022;21.356;2024-01-15T06:31:34;99.88;;;49.30;;
78308;SDS011;75657;42.022;21.356;2024-01-15T06:33:59;97.10;;;49.72;;
78308;SDS011;75657;42.022;21.356;2024-01-15T06:36:25;105.78;;;53.20;;
78308;SDS011;75657;42.022;21.356;2024-01-15T06:38:50;92.20;;;46.75;;
78308;SDS011;75657;42.022;21.356;2024-01-15T06:41:16;105.15;;;53.88;;
78308;SDS011;75657;42.022;21.356;2024-01-15T06:43:41;105.72;;;56.78;;
78308;SDS011;75657;42.022;21.356;2024-01-15T06:46:06;110.68;;;56.90;;
78308;SDS011;75657;42.022;21.356;2024-01-15T06:48:32;111.35;;;55.63;;
78308;SDS011;75657;42.022;21.356;2024-01-15T06:50:57;93.63;;;51.25;;
78308;SDS011;75657;42.022;21.356;2024-01-15T06:53:23;105.22;;;52.38;;
78308;SDS011;75657;42.022;21.356;2024-01-15T06:55:48;109.43;;;52.70;;
78308;SDS011;75657;42.022;21.356;2024-01-15T06:58:16;100.22;;;50.92;;
78308;SDS011;75657;42.022;21.356;2024-01-15T07:00:41;101.95;;;48.13;;
78308;SDS011;75657;42.022;21.356;2024-01-15T07:03:07;98.20;;;52.78;;
78308;SDS011;75657;42.022;21.356;2024-01-15T07:05:32;107.63;;;57.38;;
78308;SDS011;75657;42.022;21.356;2024-01-15T07:07:58;136.43;;;67.90;;
78308;SDS011;75657;42.022;21.356;2024-01-15T07:10:23;119.93;;;62.33;;
78308;SDS011;75657;42.022;21.356;2024-01-15T07:12:49;110.57;;;53.83;;
78308;SDS011;75657;42.022;21.356;2024-01-15T07:15:14;96.20;;;47.95;;
78308;SDS011;75657;42.022;21.356;2024-01-15T07:17:40;89.22;;;44.72;;
78308;SDS011;75657;42.022;21.356;2024-01-15T07:20:07;82.63;;;44.35;;
78308;SDS011;75657;42.022;21.356;2024-01-15T07:22:33;83.85;;;43.65;;
78308;SDS011;75657;42.022;21.356;2024-01-15T07:25:00;91.85;;;46.17;;
78308;SDS011;75657;42.022;21.356;2024-01-15T07:27:25;90.57;;;44.72;;
78308;SDS011;75657;42.022;21.356;2024-01-15T07:29:51;86.45;;;45.55;;
78308;SDS011;75657;42.022;21.356;2024-01-15T07:32:17;94.55;;;50.65;;
78308;SDS011;75657;42.022;21.356;2024-01-15T07:34:42;104.50;;;51.75;;
78308;SDS011;75657;42.022;21.356;2024-01-15T07:37:08;100.30;;;50.85;;
78308;SDS011;75657;42.022;21.356;2024-01-15T07:39:34;112.90;;;55.40;;
78308;SDS011;75657;42.022;21.356;2024-01-15T07:41:59;111.00;;;58.33;;
78308;SDS011;75657;42.022;21.356;2024-01-15T07:44:25;106.93;;;57.03;;
78308;SDS011;75657;42.022;21.356;2024-01-15T07:46:51;112.90;;;57.08;;
78308;SDS011;75657;42.022;21.356;2024-01-15T07:49:16;110.32;;;56.83;;
78308;SDS011;75657;42.022;21.356;2024-01-15T07:51:42;100.70;;;51.53;;
78308;SDS011;75657;42.022;21.356;2024-01-15T07:54:10;95.78;;;49.75;;
78308;SDS011;75657;42.022;21.356;2024-01-15T07:59:24;95.20;;;47.63;;
78308;SDS011;75657;42.022;21.356;2024-01-15T08:01:51;101.80;;;51.63;;
78308;SDS011;75657;42.022;21.356;2024-01-15T08:04:18;90.63;;;45.03;;
78308;SDS011;75657;42.022;21.356;2024-01-15T08:06:43;101.97;;;53.35;;
78308;SDS011;75657;42.022;21.356;2024-01-15T08:09:10;143.00;;;66.80;;
78308;SDS011;75657;42.022;21.356;2024-01-15T08:11:36;137.80;;;66.47;;
78308;SDS011;75657;42.022;21.356;2024-01-15T08:14:04;120.20;;;60.78;;
78308;SDS011;75657;42.022;21.356;2024-01-15T08:16:29;112.22;;;56.35;;
78308;SDS011;75657;42.022;21.356;2024-01-15T08:18:54;108.75;;;55.92;;
78308;SDS011;75657;42.022;21.356;2024-01-15T08:21:20;104.97;;;53.33;;
78308;SDS011;75657;42.022;21.356;2024-01-15T08:23:45;101.65;;;53.92;;
78308;SDS011;75657;42.022;21.356;2024-01-15T08:26:11;112.47;;;62.10;;
78308;SDS011;75657;42.022;21.356;2024-01-15T08:28:36;98.95;;;56.05;;
78308;SDS011;75657;42.022;21.356;2024-01-15T08:31:02;102.65;;;55.65;;
78308;SDS011;75657;42.022;21.356;2024-01-15T08:33:28;107.85;;;57.63;;
78308;SDS011;75657;42.022;21.356;2024-01-15T08:35:54;109.35;;;56.38;;
78308;SDS011;75657;42.022;21.356;2024-01-15T08:38:19;105.90;;;55.15;;
78308;SDS011;75657;42.022;21.356;2024-01-15T08:40:45;100.10;;;52.55;;
78308;SDS011;75657;42.022;21.356;2024-01-15T08:43:10;99.65;;;52.85;;
78308;SDS011;75657;42.022;21.356;2024-01-15T08:45:36;97.70;;;50.05;;
78308;SDS011;75657;42.022;21.356;2024-01-15T08:48:02;97.05;;;53.03;;
78308;SDS011;75657;42.022;21.356;2024-01-15T08:50:28;111.05;;;56.63;;
78308;SDS011;75657;42.022;21.356;2024-01-15T08:52:54;107.55;;;58.85;;
78308;SDS011;75657;42.022;21.356;2024-01-15T08:55:20;110.10;;;55.83;;
78308;SDS011;75657;42.022;21.356;2024-01-15T08:57:47;89.15;;;45.40;;
78308;SDS011;75657;42.022;21.356;2024-01-15T09:00:13;103.47;;;53.17;;
78308;SDS011;75657;42.022;21.356;2024-01-15T09:02:39;98.45;;;50.70;;
78308;SDS011;75657;42.022;21.356;2024-01-15T09:05:05;94.93;;;51.05;;
78308;SDS011;75657;42.022;21.356;2024-01-15T09:07:31;113.28;;;54.30;;
78308;SDS011;75657;42.022;21.356;2024-01-15T09:09:57;84.38;;;47.72;;
78308;SDS011;75657;42.022;21.356;2024-01-15T09:12:24;100.28;;;52.50;;
78308;SDS011;75657;42.022;21.356;2024-01-15T09:14:50;98.50;;;53.90;;
78308;SDS011;75657;42.022;21.356;2024-01-15T09:17:15;87.85;;;49.65;;
78308;SDS011;75657;42.022;21.356;2024-01-15T09:19:41;98.60;;;52.58;;
78308;SDS011;75657;42.022;21.356;2024-01-15T09:22:07;93.05;;;50.47;;
78308;SDS011;75657;42.022;21.356;2024-01-15T09:24:32;110.25;;;56.72;;
78308;SDS011;75657;42.022;21.356;2024-01-15T09:26:58;107.72;;;54.50;;
78308;SDS011;75657;42.022;21.356;2024-01-15T09:29:23;112.30;;;59.20;;
78308;SDS011;75657;42.022;21.356;2024-01-15T09:31:51;103.60;;;53.75;;
78308;SDS011;75657;42.022;21.356;2024-01-15T09:34:17;117.35;;;59.67;;
78308;SDS011;75657;42.022;21.356;2024-01-15T09:36:43;107.82;;;55.08;;
78308;SDS011;75657;42.022;21.356;2024-01-15T09:39:09;110.82;;;56.95;;
78308;SDS011;75657;42.022;21.356;2024-01-15T09:41:36;99.35;;;54.60;;
78308;SDS011;75657;42.022;21.356;2024-01-15T09:44:02;115.18;;;57.75;;
78308;SDS011;75657;42.022;21.356;2024-01-15T09:46:28;110.60;;;59.08;;
78308;SDS011;75657;42.022;21.356;2024-01-15T09:48:56;108.68;;;55.85;;
78308;SDS011;75657;42.022;21.356;2024-01-15T09:51:22;103.75;;;53.05;;
78308;SDS011;75657;42.022;21.356;2024-01-15T09:53:49;111.10;;;59.85;;
78308;SDS011;75657;42.022;21.356;2024-01-15T09:56:15;123.72;;;65.30;;
78308;SDS011;75657;42.022;21.356;2024-01-15T09:58:41;112.88;;;64.80;;
78308;SDS011;75657;42.022;21.356;2024-01-15T10:01:07;123.25;;;66.85;;
78308;SDS011;75657;42.022;21.356;2024-01-15T10:03:34;124.53;;;69.57;;
78308;SDS011;75657;42.022;21.356;2024-01-15T10:06:02;118.93;;;63.20;;
78308;SDS011;75657;42.022;21.356;2024-01-15T10:08:28;123.63;;;63.42;;
78308;SDS011;75657;42.022;21.356;2024-01-15T10:10:53;116.75;;;65.05;;
78308;SDS011;75657;42.022;21.356;2024-01-15T10:13:19;118.20;;;61.88;;
78308;SDS011;75657;42.022;21.356;2024-01-15T10:15:48;115.30;;;59.33;;
78308;SDS011;75657;42.022;21.356;2024-01-15T10:18:14;126.13;;;72.65;;
78308;SDS011;75657;42.022;21.356;2024-01-15T10:20:40;125.72;;;65.00;;
78308;SDS011;75657;42.022;21.356;2024-01-15T10:23:05;122.72;;;63.13;;
78308;SDS011;75657;42.022;21.356;2024-01-15T10:25:31;121.95;;;65.63;;
78308;SDS011;75657;42.022;21.356;2024-01-15T10:28:00;115.93;;;65.63;;
78308;SDS011;75657;42.022;21.356;2024-01-15T10:30:27;123.28;;;65.60;;
78308;SDS011;75657;42.022;21.356;2024-01-15T10:33:00;118.93;;;67.15;;
78308;SDS011;75657;42.022;21.356;2024-01-15T10:35:27;109.93;;;60.42;;
78308;SDS011;75657;42.022;21.356;2024-01-15T10:37:56;109.03;;;60.10;;
78308;SDS011;75657;42.022;21.356;2024-01-15T10:40:22;108.78;;;59.85;;
78308;SDS011;75657;42.022;21.356;2024-01-15T10:42:50;96.43;;;53.92;;
78308;SDS011;75657;42.022;21.356;2024-01-15T10:45:16;104.78;;;58.83;;
78308;SDS011;75657;42.022;21.356;2024-01-15T10:47:42;113.13;;;59.33;;
78308;SDS011;75657;42.022;21.356;2024-01-15T10:50:08;108.70;;;59.13;;
78308;SDS011;75657;42.022;21.356;2024-01-15T10:52:38;101.53;;;56.40;;
78308;SDS011;75657;42.022;21.356;2024-01-15T10:55:11;105.82;;;56.72;;
78308;SDS011;75657;42.022;21.356;2024-01-15T10:57:37;100.93;;;55.80;;
78308;SDS011;75657;42.022;21.356;2024-01-15T11:00:03;104.55;;;57.47;;
78308;SDS011;75657;42.022;21.356;2024-01-15T11:02:34;117.28;;;60.80;;
78308;SDS011;75657;42.022;21.356;2024-01-15T11:05:01;100.35;;;55.17;;
78308;SDS011;75657;42.022;21.356;2024-01-15T11:07:27;101.75;;;55.35;;
78308;SDS011;75657;42.022;21.356;2024-01-15T11:09:57;115.10;;;62.17;;
78308;SDS011;75657;42.022;21.356;2024-01-15T11:12:26;108.45;;;59.67;;
78308;SDS011;75657;42.022;21.356;2024-01-15T11:15:00;117.72;;;60.22;;
78308;SDS011;75657;42.022;21.356;2024-01-15T11:17:31;93.65;;;52.33;;
78308;SDS011;75657;42.022;21.356;2024-01-15T11:20:28;99.97;;;53.10;;
78308;SDS011;75657;42.022;21.356;2024-01-15T11:22:57;89.82;;;51.65;;
78308;SDS011;75657;42.022;21.356;2024-01-15T11:25:24;84.85;;;46.92;;
78308;SDS011;75657;42.022;21.356;2024-01-15T11:30:26;82.00;;;43.83;;
78308;SDS011;75657;42.022;21.356;2024-01-15T11:32:52;75.90;;;40.05;;
78308;SDS011;75657;42.022;21.356;2024-01-15T11:35:17;78.70;;;42.67;;
78308;SDS011;75657;42.022;21.356;2024-01-15T11:40:43;436.25;;;237.45;;
78308;SDS011;75657;42.022;21.356;2024-01-15T11:43:11;150.32;;;79.63;;
78308;SDS011;75657;42.022;21.356;2024-01-15T11:45:38;85.93;;;46.90;;
78308;SDS011;75657;42.022;21.356;2024-01-15T11:50:31;67.30;;;40.08;;
78308;SDS011;75657;42.022;21.356;2024-01-15T11:53:02;67.10;;;37.60;;
78308;SDS011;75657;42.022;21.356;2024-01-15T11:55:34;65.45;;;34.35;;
78308;SDS011;75657;42.022;21.356;2024-01-15T11:58:01;65.97;;;37.90;;
78308;SDS011;75657;42.022;21.356;2024-01-15T12:00:28;69.47;;;38.17;;
78308;SDS011;75657;42.022;21.356;2024-01-15T12:02:54;75.40;;;42.58;;
78308;SDS011;75657;42.022;21.356;2024-01-15T12:05:20;79.93;;;45.63;;
78308;SDS011;75657;42.022;21.356;2024-01-15T12:07:49;79.38;;;45.72;;
78308;SDS011;75657;42.022;21.356;2024-01-15T12:15:20;89.35;;;48.72;;
78308;SDS011;75657;42.022;21.356;2024-01-15T12:17:46;83.82;;;45.15;;
78308;SDS011;75657;42.022;21.356;2024-01-15T12:20:12;83.03;;;43.53;;
78308;SDS011;75657;42.022;21.356;2024-01-15T12:22:38;86.10;;;44.95;;
78308;SDS011;75657;42.022;21.356;2024-01-15T12:25:04;75.30;;;40.70;;
78308;SDS011;75657;42.022;21.356;2024-01-15T12:27:30;81.20;;;45.08;;
78308;SDS011;75657;42.022;21.356;2024-01-15T12:29:57;69.00;;;38.75;;
78308;SDS011;75657;42.022;21.356;2024-01-15T12:32:23;74.25;;;41.38;;
78308;SDS011;75657;42.022;21.356;2024-01-15T12:34:50;70.80;;;37.97;;
78308;SDS011;75657;42.022;21.356;2024-01-15T12:37:18;78.40;;;42.85;;
78308;SDS011;75657;42.022;21.356;2024-01-15T12:39:44;80.75;;;42.95;;
78308;SDS011;75657;42.022;21.356;2024-01-15T12:42:10;77.05;;;43.95;;
78308;SDS011;75657;42.022;21.356;2024-01-15T12:44:36;74.90;;;41.88;;
78308;SDS011;75657;42.022;21.356;2024-01-15T12:47:04;65.75;;;39.25;;
78308;SDS011;75657;42.022;21.356;2024-01-15T12:49:30;76.93;;;41.58;;
78308;SDS011;75657;42.022;21.356;2024-01-15T12:51:57;67.38;;;38.45;;
78308;SDS011;75657;42.022;21.356;2024-01-15T12:54:22;68.70;;;37.55;;
78308;SDS011;75657;42.022;21.356;2024-01-15T12:56:49;63.28;;;35.45;;
78308;SDS011;75657;42.022;21.356;2024-01-15T12:59:15;67.50;;;36.20;;
78308;SDS011;75657;42.022;21.356;2024-01-15T13:01:41;60.65;;;32.75;;
78308;SDS011;75657;42.022;21.356;2024-01-15T13:04:07;42.70;;;24.38;;
78308;SDS011;75657;42.022;21.356;2024-01-15T13:06:36;39.40;;;23.35;;
78308;SDS011;75657;42.022;21.356;2024-01-15T13:09:03;62.33;;;37.70;;
78308;SDS011;75657;42.022;21.356;2024-01-15T13:11:36;69.03;;;38.80;;
78308;SDS011;75657;42.022;21.356;2024-01-15T13:14:11;52.08;;;28.65;;
78308;SDS011;75657;42.022;21.356;2024-01-15T13:17:02;78.40;;;34.80;;
78308;SDS011;75657;42.022;21.356;2024-01-15T13:19:38;133.85;;;50.28;;
78308;SDS011;75657;42.022;21.356;2024-01-15T13:22:04;113.28;;;46.97;;
78308;SDS011;75657;42.022;21.356;2024-01-15T13:24:31;102.18;;;44.42;;
78308;SDS011;75657;42.022;21.356;2024-01-15T13:26:57;68.50;;;35.40;;
78308;SDS011;75657;42.022;21.356;2024-01-15T13:29:22;61.47;;;33.00;;
78308;SDS011;75657;42.022;21.356;2024-01-15T13:31:53;63.38;;;33.38;;
78308;SDS011;75657;42.022;21.356;2024-01-15T13:34:42;62.88;;;34.50;;
78308;SDS011;75657;42.022;21.356;2024-01-15T13:37:21;60.10;;;33.00;;
78308;SDS011;75657;42.022;21.356;2024-01-15T13:39:51;52.47;;;29.15;;
78308;SDS011;75657;42.022;21.356;2024-01-15T13:42:27;67.90;;;34.42;;
78308;SDS011;75657;42.022;21.356;2024-01-15T13:44:52;68.03;;;36.92;;
78308;SDS011;75657;42.022;21.356;2024-01-15T13:47:18;62.95;;;36.05;;
78308;SDS011;75657;42.022;21.356;2024-01-15T13:49:55;62.50;;;33.67;;
78308;SDS011;75657;42.022;21.356;2024-01-15T13:52:28;79.13;;;43.08;;
78308;SDS011;75657;42.022;21.356;2024-01-15T13:54:58;63.13;;;38.53;;
78308;SDS011;75657;42.022;21.356;2024-01-15T13:57:25;60.35;;;33.53;;
78308;SDS011;75657;42.022;21.356;2024-01-15T13:59:50;65.38;;;33.38;;
78308;SDS011;75657;42.022;21.356;2024-01-15T14:02:16;62.60;;;33.47;;
78308;SDS011;75657;42.022;21.356;2024-01-15T14:04:42;58.15;;;32.28;;
78308;SDS011;75657;42.022;21.356;2024-01-15T14:07:07;56.58;;;29.98;;
78308;SDS011;75657;42.022;21.356;2024-01-15T14:09:33;61.00;;;32.80;;
78308;SDS011;75657;42.022;21.356;2024-01-15T14:11:59;60.63;;;32.80;;
78308;SDS011;75657;42.022;21.356;2024-01-15T14:14:27;56.63;;;32.45;;